createdAt,value
2023-06-18T00:00:30.685Z,0.00
2023-06-18T00:01:30.753Z,0.00
2023-06-18T00:02:30.702Z,0.00
2023-06-18T00:03:30.700Z,0.00
2023-06-18T00:04:30.664Z,0.00
2023-06-18T00:05:30.663Z,0.00
2023-06-18T00:06:30.671Z,0.00
2023-06-18T00:07:30.653Z,0.00
2023-06-18T00:08:30.652Z,0.00
2023-06-18T00:09:30.641Z,0.00
2023-06-18T00:10:30.637Z,0.00
2023-06-18T00:11:30.676Z,0.00
2023-06-18T00:12:30.627Z,0.00
2023-06-18T00:13:30.618Z,0.00
2023-06-18T00:14:30.653Z,0.00
2023-06-18T00:15:30.608Z,0.00
2023-06-18T00:16:30.655Z,0.00
2023-06-18T00:17:30.596Z,0.00
2023-06-18T00:18:30.600Z,0.00
2023-06-18T00:19:30.586Z,0.00
2023-06-18T00:20:30.597Z,0.00
2023-06-18T00:21:30.574Z,0.00
2023-06-18T00:22:30.571Z,0.00
2023-06-18T00:23:30.564Z,0.00
2023-06-18T00:24:30.590Z,0.00
2023-06-18T00:25:30.572Z,0.00
2023-06-18T00:26:30.551Z,0.00
2023-06-18T00:27:30.542Z,0.00
2023-06-18T00:28:30.539Z,0.00
2023-06-18T00:29:30.534Z,0.00
2023-06-18T00:30:30.529Z,0.00
2023-06-18T00:31:30.551Z,0.00
2023-06-18T00:32:30.518Z,0.00
2023-06-18T00:33:30.507Z,0.00
2023-06-18T00:34:30.509Z,0.00
2023-06-18T00:35:30.498Z,0.00
2023-06-18T00:36:30.490Z,0.00
2023-06-18T00:37:30.489Z,0.00
2023-06-18T00:38:30.481Z,0.00
2023-06-18T00:39:30.476Z,0.00
2023-06-18T00:40:30.480Z,0.00
2023-06-18T00:41:30.461Z,0.00
2023-06-18T00:42:30.466Z,0.00
2023-06-18T00:43:30.453Z,0.00
2023-06-18T00:44:30.465Z,0.00
2023-06-18T00:45:30.481Z,0.00
2023-06-18T00:46:30.456Z,0.00
2023-06-18T00:47:30.436Z,0.00
2023-06-18T00:48:30.425Z,0.00
2023-06-18T00:49:30.423Z,0.00
2023-06-18T00:50:30.412Z,0.00
2023-06-18T00:51:30.423Z,0.00
2023-06-18T00:52:30.399Z,0.00
2023-06-18T00:53:30.392Z,0.00
2023-06-18T00:54:30.390Z,0.00
2023-06-18T00:55:30.385Z,0.00
2023-06-18T00:56:30.488Z,0.00
2023-06-18T00:57:30.384Z,0.00
2023-06-18T00:58:30.375Z,0.00
2023-06-18T00:59:30.363Z,0.00
2023-06-18T01:00:30.361Z,0.00
2023-06-18T01:01:30.380Z,0.00
2023-06-18T01:02:31.905Z,0.00
2023-06-18T01:03:30.364Z,0.00
2023-06-18T01:04:30.407Z,0.00
2023-06-18T01:05:30.332Z,0.00
2023-06-18T01:06:30.330Z,0.00
2023-06-18T01:07:38.031Z,0.00
2023-06-18T01:08:30.308Z,0.00
2023-06-18T01:09:30.306Z,0.00
2023-06-18T01:10:30.343Z,0.00
2023-06-18T01:11:30.321Z,0.00
2023-06-18T01:12:30.290Z,0.00
2023-06-18T01:13:30.282Z,0.00
2023-06-18T01:14:30.276Z,0.00
2023-06-18T01:15:30.269Z,0.00
2023-06-18T01:16:30.312Z,0.00
2023-06-18T01:17:30.284Z,0.00
2023-06-18T01:18:30.255Z,0.00
2023-06-18T01:19:30.269Z,0.00
2023-06-18T01:20:30.242Z,0.00
2023-06-18T01:21:30.235Z,0.00
2023-06-18T01:22:30.230Z,0.00
2023-06-18T01:23:30.224Z,0.00
2023-06-18T01:24:30.349Z,0.00
2023-06-18T01:25:30.217Z,0.00
2023-06-18T01:26:30.206Z,0.00
2023-06-18T01:27:30.204Z,0.00
2023-06-18T01:28:30.194Z,0.00
2023-06-18T01:29:30.186Z,0.00
2023-06-18T01:30:30.192Z,0.00
2023-06-18T01:31:30.175Z,0.00
2023-06-18T01:32:30.251Z,0.00
2023-06-18T01:33:30.168Z,0.00
2023-06-18T01:34:30.161Z,0.00
2023-06-18T01:35:30.158Z,0.00
2023-06-18T01:36:30.164Z,0.00
2023-06-18T01:37:30.172Z,0.00
2023-06-18T01:38:30.135Z,0.00
2023-06-18T01:39:30.160Z,0.00
2023-06-18T01:40:30.121Z,0.00
2023-06-18T01:41:30.120Z,0.00
2023-06-18T01:42:30.115Z,0.00
2023-06-18T01:43:30.117Z,0.00
2023-06-18T01:44:30.099Z,0.00
2023-06-18T01:45:30.093Z,0.00
2023-06-18T01:46:30.122Z,0.00
2023-06-18T01:47:30.116Z,0.00
2023-06-18T01:48:30.073Z,0.00
2023-06-18T01:49:30.071Z,0.00
2023-06-18T01:50:30.064Z,0.00
2023-06-18T01:51:30.058Z,0.00
2023-06-18T01:52:30.056Z,0.00
2023-06-18T01:53:30.055Z,0.00
2023-06-18T01:54:30.042Z,0.00
2023-06-18T01:55:30.054Z,0.00
2023-06-18T01:56:30.027Z,0.00
2023-06-18T01:57:30.024Z,0.00
2023-06-18T01:58:30.014Z,0.00
2023-06-18T01:59:30.012Z,0.00
2023-06-18T02:00:30.007Z,4.00
2023-06-18T02:01:30.022Z,4.00
2023-06-18T02:02:30.055Z,4.00
2023-06-18T02:03:30.111Z,4.00
2023-06-18T02:04:29.986Z,0.00
2023-06-18T02:05:29.985Z,4.00
2023-06-18T02:06:29.968Z,4.00
2023-06-18T02:07:29.976Z,4.00
2023-06-18T02:08:29.986Z,4.00
2023-06-18T02:09:29.951Z,4.00
2023-06-18T02:10:29.956Z,8.00
2023-06-18T02:11:29.939Z,8.00
2023-06-18T02:12:29.933Z,8.00
2023-06-18T02:13:29.933Z,8.00
2023-06-18T02:14:29.942Z,8.00
2023-06-18T02:15:29.915Z,8.00
2023-06-18T02:16:29.967Z,12.00
2023-06-18T02:17:29.928Z,12.00
2023-06-18T02:18:29.897Z,16.00
2023-06-18T02:19:29.893Z,16.00
2023-06-18T02:20:29.883Z,16.00
2023-06-18T02:21:29.891Z,20.00
2023-06-18T02:22:29.873Z,20.00
2023-06-18T02:23:29.864Z,24.00
2023-06-18T02:24:29.885Z,24.00
2023-06-18T02:25:29.887Z,28.00
2023-06-18T02:26:29.850Z,32.00
2023-06-18T02:27:29.860Z,36.00
2023-06-18T02:28:29.845Z,40.00
2023-06-18T02:29:29.831Z,44.00
2023-06-18T02:30:29.826Z,48.00
2023-06-18T02:31:29.827Z,52.00
2023-06-18T02:32:29.833Z,56.00
2023-06-18T02:33:29.807Z,64.00
2023-06-18T02:34:29.804Z,68.00
2023-06-18T02:35:29.792Z,76.00
2023-06-18T02:36:29.791Z,80.00
2023-06-18T02:37:29.781Z,88.00
2023-06-18T02:38:29.778Z,92.00
2023-06-18T02:39:29.769Z,100.00
2023-06-18T02:40:29.765Z,108.00
2023-06-18T02:41:29.755Z,116.00
2023-06-18T02:42:29.763Z,128.00
2023-06-18T02:43:29.745Z,136.00
2023-06-18T02:44:29.772Z,144.00
2023-06-18T02:45:29.745Z,156.00
2023-06-18T02:46:29.752Z,164.00
2023-06-18T02:47:29.806Z,176.00
2023-06-18T02:48:29.716Z,188.00
2023-06-18T02:49:29.712Z,200.00
2023-06-18T02:50:29.703Z,212.00
2023-06-18T02:51:29.700Z,224.00
2023-06-18T02:52:29.694Z,236.00
2023-06-18T02:53:29.688Z,248.00
2023-06-18T02:54:29.680Z,264.00
2023-06-18T02:55:29.679Z,280.00
2023-06-18T02:56:29.779Z,292.00
2023-06-18T02:57:29.663Z,308.00
2023-06-18T02:58:30.002Z,324.00
2023-06-18T02:59:29.655Z,340.00
2023-06-18T03:00:29.649Z,352.00
2023-06-18T03:01:29.660Z,368.00
2023-06-18T03:02:29.642Z,380.00
2023-06-18T03:03:29.629Z,396.00
2023-06-18T03:04:29.674Z,412.00
2023-06-18T03:05:29.746Z,432.00
2023-06-18T03:06:29.609Z,444.00
2023-06-18T03:07:29.602Z,460.00
2023-06-18T03:08:29.603Z,476.00
2023-06-18T03:09:29.590Z,496.00
2023-06-18T03:10:29.589Z,512.00
2023-06-18T03:11:29.579Z,528.00
2023-06-18T03:12:29.598Z,544.00
2023-06-18T03:13:29.576Z,564.00
2023-06-18T03:14:29.569Z,584.00
2023-06-18T03:15:29.573Z,596.00
2023-06-18T03:16:29.573Z,620.00
2023-06-18T03:17:29.561Z,636.00
2023-06-18T03:18:29.538Z,656.00
2023-06-18T03:19:29.536Z,672.00
2023-06-18T03:20:29.525Z,688.00
2023-06-18T03:21:29.522Z,708.00
2023-06-18T03:22:29.540Z,728.00
2023-06-18T03:23:29.504Z,748.00
2023-06-18T03:24:29.515Z,760.00
2023-06-18T03:25:29.501Z,780.00
2023-06-18T03:26:29.487Z,804.00
2023-06-18T03:27:29.490Z,828.00
2023-06-18T03:28:29.481Z,852.00
2023-06-18T03:29:29.475Z,880.00
2023-06-18T03:30:29.483Z,908.00
2023-06-18T03:31:29.455Z,944.00
2023-06-18T03:32:29.471Z,984.00
2023-06-18T03:33:29.447Z,1016.00
2023-06-18T03:34:29.444Z,1048.00
2023-06-18T03:35:29.444Z,1080.00
2023-06-18T03:36:29.427Z,1104.00
2023-06-18T03:37:29.421Z,1132.00
2023-06-18T03:38:29.412Z,1160.00
2023-06-18T03:39:29.493Z,1188.00
2023-06-18T03:40:29.404Z,1220.00
2023-06-18T03:41:29.399Z,1256.00
2023-06-18T03:42:29.390Z,1300.00
2023-06-18T03:43:29.385Z,1340.00
2023-06-18T03:44:29.378Z,1384.00
2023-06-18T03:45:29.373Z,1428.00
2023-06-18T03:46:29.395Z,1476.00
2023-06-18T03:47:29.376Z,1528.00
2023-06-18T03:48:29.355Z,1584.00
2023-06-18T03:49:29.348Z,1640.00
2023-06-18T03:50:29.342Z,2056.00
2023-06-18T03:51:29.335Z,2744.00
2023-06-18T03:52:29.334Z,2900.00
2023-06-18T03:53:29.322Z,3032.00
2023-06-18T03:54:29.321Z,3096.00
2023-06-18T03:55:29.310Z,3160.00
2023-06-18T03:56:29.300Z,3204.00
2023-06-18T03:57:29.298Z,3256.00
2023-06-18T03:58:29.291Z,3296.00
2023-06-18T03:59:29.287Z,3340.00
2023-06-18T04:00:29.283Z,3404.00
2023-06-18T04:01:29.339Z,3476.00
2023-06-18T04:02:29.379Z,3568.00
2023-06-18T04:03:29.354Z,3684.00
2023-06-18T04:04:29.253Z,3800.00
2023-06-18T04:05:29.249Z,3908.00
2023-06-18T04:06:29.249Z,3968.00
2023-06-18T04:07:29.239Z,4024.00
2023-06-18T04:08:29.432Z,4080.00
2023-06-18T04:09:29.229Z,4148.00
2023-06-18T04:10:29.219Z,4224.00
2023-06-18T04:11:29.217Z,4264.00
2023-06-18T04:12:29.208Z,4336.00
2023-06-18T04:13:29.206Z,4428.00
2023-06-18T04:14:29.201Z,4492.00
2023-06-18T04:15:29.196Z,4628.00
2023-06-18T04:16:29.309Z,4720.00
2023-06-18T04:17:29.218Z,4788.00
2023-06-18T04:18:29.185Z,4880.00
2023-06-18T04:19:29.177Z,4964.00
2023-06-18T04:20:29.200Z,5048.00
2023-06-18T04:21:29.168Z,5084.00
2023-06-18T04:22:29.159Z,5132.00
2023-06-18T04:23:29.168Z,5196.00
2023-06-18T04:24:29.188Z,5236.00
2023-06-18T04:25:29.153Z,5324.00
2023-06-18T04:26:29.147Z,5440.00
2023-06-18T04:27:29.141Z,5536.00
2023-06-18T04:28:29.136Z,5640.00
2023-06-18T04:29:29.132Z,5732.00
2023-06-18T04:30:29.142Z,5832.00
2023-06-18T04:31:29.127Z,5944.00
2023-06-18T04:32:29.154Z,6016.00
2023-06-18T04:33:29.119Z,6084.00
2023-06-18T04:34:29.115Z,6156.00
2023-06-18T04:35:29.112Z,6196.00
2023-06-18T04:36:29.105Z,6252.00
2023-06-18T04:37:29.115Z,6240.00
2023-06-18T04:38:29.133Z,6244.00
2023-06-18T04:39:29.096Z,6284.00
2023-06-18T04:40:29.092Z,6372.00
2023-06-18T04:41:29.093Z,6400.00
2023-06-18T04:42:29.086Z,6448.00
2023-06-18T04:43:29.091Z,6536.00
2023-06-18T04:44:29.080Z,6608.00
2023-06-18T04:45:29.094Z,6660.00
2023-06-18T04:46:29.095Z,6620.00
2023-06-18T04:47:29.088Z,6388.00
2023-06-18T04:48:29.087Z,6124.00
2023-06-18T04:49:29.063Z,6352.00
2023-06-18T04:50:29.063Z,6416.00
2023-06-18T04:51:29.055Z,6368.00
2023-06-18T04:52:29.087Z,6448.00
2023-06-18T04:53:29.064Z,6508.00
2023-06-18T04:54:29.057Z,6564.00
2023-06-18T04:55:29.049Z,6556.00
2023-06-18T04:56:29.048Z,6572.00
2023-06-18T04:57:29.051Z,6652.00
2023-06-18T04:58:29.060Z,6720.00
2023-06-18T04:59:29.041Z,6744.00
2023-06-18T05:00:29.058Z,6876.00
2023-06-18T05:01:29.038Z,7156.00
2023-06-18T05:02:29.045Z,7328.00
2023-06-18T05:03:29.171Z,7508.00
2023-06-18T05:04:29.059Z,7564.00
2023-06-18T05:05:29.040Z,7628.00
2023-06-18T05:06:29.037Z,7732.00
2023-06-18T05:07:29.034Z,7812.00
2023-06-18T05:08:29.025Z,7796.00
2023-06-18T05:09:29.024Z,7696.00
2023-06-18T05:10:29.023Z,7592.00
2023-06-18T05:11:29.020Z,7504.00
2023-06-18T05:12:29.042Z,7484.00
2023-06-18T05:13:29.020Z,7416.00
2023-06-18T05:14:29.020Z,7412.00
2023-06-18T05:15:29.013Z,7404.00
2023-06-18T05:16:29.040Z,7472.00
2023-06-18T05:17:29.016Z,7560.00
2023-06-18T05:18:29.034Z,7664.00
2023-06-18T05:19:29.019Z,7796.00
2023-06-18T05:20:29.031Z,7844.00
2023-06-18T05:21:29.011Z,7844.00
2023-06-18T05:22:29.009Z,7808.00
2023-06-18T05:23:29.005Z,7824.00
2023-06-18T05:24:29.081Z,7916.00
2023-06-18T05:25:29.009Z,7960.00
2023-06-18T05:26:29.004Z,8056.00
2023-06-18T05:27:29.015Z,8148.00
2023-06-18T05:28:29.009Z,8184.00
2023-06-18T05:29:29.025Z,8240.00
2023-06-18T05:30:29.010Z,8204.00
2023-06-18T05:31:29.005Z,8136.00
2023-06-18T05:32:29.019Z,8104.00
2023-06-18T05:33:29.006Z,8104.00
2023-06-18T05:34:29.007Z,8116.00
2023-06-18T05:35:29.006Z,8140.00
2023-06-18T05:36:29.007Z,8192.00
2023-06-18T05:37:29.011Z,8220.00
2023-06-18T05:38:29.006Z,8240.00
2023-06-18T05:39:29.011Z,8288.00
2023-06-18T05:40:29.023Z,8428.00
2023-06-18T05:41:29.022Z,8624.00
2023-06-18T05:42:29.008Z,8784.00
2023-06-18T05:43:29.012Z,8844.00
2023-06-18T05:44:29.013Z,8800.00
2023-06-18T05:45:29.017Z,8760.00
2023-06-18T05:46:29.092Z,8672.00
2023-06-18T05:47:29.038Z,8628.00
2023-06-18T05:48:29.013Z,8632.00
2023-06-18T05:49:29.013Z,8616.00
2023-06-18T05:50:29.031Z,8632.00
2023-06-18T05:51:29.014Z,8720.00
2023-06-18T05:52:29.016Z,8804.00
2023-06-18T05:53:29.020Z,8816.00
2023-06-18T05:54:29.017Z,8848.00
2023-06-18T05:55:29.019Z,8892.00
2023-06-18T05:56:29.019Z,8912.00
2023-06-18T05:57:29.023Z,8896.00
2023-06-18T05:58:29.025Z,8900.00
2023-06-18T05:59:29.041Z,8932.00
2023-06-18T06:00:29.029Z,8940.00
2023-06-18T06:01:29.048Z,8936.00
2023-06-18T06:02:29.092Z,8940.00
2023-06-18T06:03:29.080Z,9008.00
2023-06-18T06:04:29.074Z,9036.00
2023-06-18T06:05:29.040Z,9096.00
2023-06-18T06:06:29.039Z,9140.00
2023-06-18T06:07:29.040Z,9196.00
2023-06-18T06:08:29.043Z,9264.00
2023-06-18T06:09:29.043Z,9412.00
2023-06-18T06:10:29.051Z,9616.00
2023-06-18T06:11:29.054Z,9844.00
2023-06-18T06:12:29.051Z,10140.00
2023-06-18T06:13:29.051Z,10588.00
2023-06-18T06:14:29.066Z,11168.00
2023-06-18T06:15:29.057Z,12052.00
2023-06-18T06:16:29.143Z,14108.00
2023-06-18T06:17:29.133Z,20192.00
2023-06-18T06:18:29.067Z,26560.00
2023-06-18T06:19:29.070Z,31168.00
2023-06-18T06:20:29.068Z,36096.00
2023-06-18T06:21:29.081Z,38464.00
2023-06-18T06:22:29.077Z,37600.00
2023-06-18T06:23:29.081Z,36960.00
2023-06-18T06:24:29.092Z,39200.00
2023-06-18T06:25:29.095Z,35840.00
2023-06-18T06:26:29.092Z,33184.00
2023-06-18T06:27:29.089Z,35552.00
2023-06-18T06:28:29.095Z,38304.00
2023-06-18T06:29:29.096Z,37888.00
2023-06-18T06:30:29.103Z,37376.00
2023-06-18T06:31:29.112Z,38880.00
2023-06-18T06:32:29.173Z,40928.00
2023-06-18T06:33:29.111Z,40512.00
2023-06-18T06:34:29.112Z,37536.00
2023-06-18T06:35:29.117Z,34048.00
2023-06-18T06:36:29.119Z,39040.00
2023-06-18T06:37:29.126Z,45440.00
2023-06-18T06:38:29.164Z,39968.00
2023-06-18T06:39:29.128Z,36032.00
2023-06-18T06:40:29.135Z,44128.00
2023-06-18T06:41:29.137Z,48416.00
2023-06-18T06:42:29.136Z,44224.00
2023-06-18T06:43:29.142Z,44096.00
2023-06-18T06:44:29.148Z,46112.00
2023-06-18T06:45:29.272Z,46720.00
2023-06-18T06:46:29.188Z,49152.00
2023-06-18T06:47:29.162Z,50528.00
2023-06-18T06:48:29.165Z,46784.00
2023-06-18T06:49:29.165Z,43200.00
2023-06-18T06:50:29.171Z,44352.00
2023-06-18T06:51:29.172Z,45952.00
2023-06-18T06:52:29.183Z,43968.00
2023-06-18T06:53:29.182Z,41984.00
2023-06-18T06:54:29.189Z,44672.00
2023-06-18T06:55:29.194Z,48000.00
2023-06-18T06:56:30.673Z,47168.00
2023-06-18T06:57:29.202Z,46880.00
2023-06-18T06:58:29.205Z,47872.00
2023-06-18T06:59:29.213Z,47904.00
2023-06-18T07:00:29.214Z,48160.00
2023-06-18T07:01:29.264Z,49216.00
2023-06-18T07:02:29.379Z,52000.00
2023-06-18T07:03:29.313Z,53280.00
2023-06-18T07:04:31.167Z,52320.00
2023-06-18T07:05:29.244Z,52672.00
2023-06-18T07:06:29.243Z,53888.00
2023-06-18T07:07:29.251Z,54592.00
2023-06-18T07:08:29.253Z,52064.00
2023-06-18T07:09:29.259Z,49280.00
2023-06-18T07:10:29.261Z,49440.00
2023-06-18T07:11:29.269Z,51680.00
2023-06-18T07:12:29.268Z,50976.00
2023-06-18T07:13:29.276Z,48096.00
2023-06-18T07:14:29.289Z,51072.00
2023-06-18T07:15:29.292Z,51968.00
2023-06-18T07:16:29.311Z,47872.00
2023-06-18T07:17:29.328Z,49280.00
2023-06-18T07:18:29.316Z,55840.00
2023-06-18T07:19:29.300Z,57792.00
2023-06-18T07:20:29.328Z,55712.00
2023-06-18T07:21:29.343Z,54816.00
2023-06-18T07:22:29.314Z,55520.00
2023-06-18T07:23:29.325Z,56608.00
2023-06-18T07:24:29.388Z,57792.00
2023-06-18T07:25:29.334Z,56352.00
2023-06-18T07:26:29.334Z,54848.00
2023-06-18T07:27:29.337Z,60448.00
2023-06-18T07:28:29.363Z,61728.00
2023-06-18T07:29:29.349Z,54880.00
2023-06-18T07:30:29.367Z,51776.00
2023-06-18T07:31:29.361Z,54816.00
2023-06-18T07:32:29.391Z,54048.00
2023-06-18T07:33:29.367Z,49376.00
2023-06-18T07:34:29.377Z,52832.00
2023-06-18T07:35:29.382Z,60256.00
2023-06-18T07:36:29.387Z,62464.00
2023-06-18T07:37:29.402Z,59616.00
2023-06-18T07:38:29.397Z,58944.00
2023-06-18T07:39:29.403Z,60448.00
2023-06-18T07:40:29.420Z,65888.00
2023-06-18T07:41:29.417Z,67968.00
2023-06-18T07:42:29.430Z,64608.00
2023-06-18T07:43:29.427Z,60352.00
2023-06-18T07:44:29.432Z,62912.00
2023-06-18T07:45:29.447Z,67296.00
2023-06-18T07:46:29.480Z,63136.00
2023-06-18T07:47:29.484Z,53952.00
2023-06-18T07:48:29.460Z,51904.00
2023-06-18T07:49:29.465Z,59456.00
2023-06-18T07:50:29.474Z,67008.00
2023-06-18T07:51:29.478Z,70656.00
2023-06-18T07:52:29.484Z,75136.00
2023-06-18T07:53:29.491Z,78784.00
2023-06-18T07:54:29.507Z,75808.00
2023-06-18T07:55:29.505Z,64704.00
2023-06-18T07:56:31.430Z,60096.00
2023-06-18T07:57:29.522Z,64256.00
2023-06-18T07:58:29.530Z,66976.00
2023-06-18T07:59:29.530Z,67168.00
2023-06-18T08:00:29.539Z,69024.00
2023-06-18T08:01:29.575Z,74176.00
2023-06-18T08:02:29.606Z,75936.00
2023-06-18T08:03:29.558Z,69280.00
2023-06-18T08:04:29.648Z,61216.00
2023-06-18T08:05:29.588Z,65088.00
2023-06-18T08:06:29.577Z,76512.00
2023-06-18T08:07:29.588Z,79520.00
2023-06-18T08:08:29.589Z,74528.00
2023-06-18T08:09:29.602Z,68832.00
2023-06-18T08:10:29.607Z,65344.00
2023-06-18T08:11:29.613Z,60480.00
2023-06-18T08:12:29.614Z,56896.00
2023-06-18T08:13:29.623Z,61376.00
2023-06-18T08:14:29.629Z,68864.00
2023-06-18T08:15:29.637Z,66080.00
2023-06-18T08:16:29.683Z,55680.00
2023-06-18T08:17:29.699Z,54080.00
2023-06-18T08:18:29.791Z,65888.00
2023-06-18T08:19:29.671Z,76256.00
2023-06-18T08:20:29.666Z,71264.00
2023-06-18T08:21:29.680Z,60384.00
2023-06-18T08:22:29.683Z,60544.00
2023-06-18T08:23:29.687Z,72288.00
2023-06-18T08:24:29.748Z,79200.00
2023-06-18T08:25:29.704Z,73952.00
2023-06-18T08:26:29.707Z,62912.00
2023-06-18T08:27:29.714Z,35360.00
2023-06-18T08:28:29.721Z,10788.00
2023-06-18T08:29:29.730Z,8256.00
2023-06-18T08:30:29.735Z,8160.00
2023-06-18T08:31:29.753Z,8184.00
2023-06-18T08:32:29.752Z,8052.00
2023-06-18T08:33:29.757Z,7796.00
2023-06-18T08:34:29.764Z,7648.00
2023-06-18T08:35:29.772Z,7640.00
2023-06-18T08:36:29.785Z,7624.00
2023-06-18T08:37:29.784Z,7596.00
2023-06-18T08:38:29.790Z,7600.00
2023-06-18T08:39:29.797Z,7780.00
2023-06-18T08:40:29.805Z,8192.00
2023-06-18T08:41:29.808Z,8544.00
2023-06-18T08:42:29.810Z,8784.00
2023-06-18T08:43:29.814Z,9156.00
2023-06-18T08:44:29.820Z,9568.00
2023-06-18T08:45:29.867Z,9944.00
2023-06-18T08:46:29.885Z,10196.00
2023-06-18T08:47:29.853Z,10300.00
2023-06-18T08:48:31.813Z,10236.00
2023-06-18T08:49:29.856Z,9776.00
2023-06-18T08:50:29.846Z,9208.00
2023-06-18T08:51:29.853Z,8800.00
2023-06-18T08:52:29.853Z,8988.00
2023-06-18T08:53:29.858Z,10072.00
2023-06-18T08:54:29.863Z,9796.00
2023-06-18T08:55:29.863Z,9360.00
2023-06-18T08:56:29.867Z,8436.00
2023-06-18T08:57:29.882Z,8068.00
2023-06-18T08:58:29.885Z,7900.00
2023-06-18T08:59:29.879Z,7944.00
2023-06-18T09:00:29.884Z,7884.00
2023-06-18T09:01:29.886Z,8324.00
2023-06-18T09:02:29.970Z,8464.00
2023-06-18T09:03:29.924Z,8272.00
2023-06-18T09:04:29.893Z,7860.00
2023-06-18T09:05:29.900Z,7364.00
2023-06-18T09:06:29.898Z,6688.00
2023-06-18T09:07:29.903Z,6556.00
2023-06-18T09:08:29.901Z,6948.00
2023-06-18T09:09:29.902Z,6532.00
2023-06-18T09:10:29.909Z,6224.00
2023-06-18T09:11:35.240Z,6020.00
2023-06-18T09:12:29.909Z,6220.00
2023-06-18T09:13:29.915Z,6300.00
2023-06-18T09:14:29.913Z,6736.00
2023-06-18T09:15:29.917Z,6688.00
2023-06-18T09:16:29.926Z,6720.00
2023-06-18T09:17:29.943Z,6780.00
2023-06-18T09:18:29.922Z,6632.00
2023-06-18T09:19:29.921Z,6320.00
2023-06-18T09:20:29.923Z,6144.00
2023-06-18T09:21:29.925Z,6148.00
2023-06-18T09:22:29.929Z,6204.00
2023-06-18T09:23:29.933Z,6296.00
2023-06-18T09:24:29.951Z,6408.00
2023-06-18T09:25:32.220Z,6496.00
2023-06-18T09:26:29.932Z,6596.00
2023-06-18T09:27:29.934Z,6692.00
2023-06-18T09:28:29.984Z,6760.00
2023-06-18T09:29:29.940Z,6796.00
2023-06-18T09:30:30.026Z,6896.00
2023-06-18T09:31:30.028Z,6904.00
2023-06-18T09:32:29.991Z,7080.00
2023-06-18T09:33:29.950Z,7240.00
2023-06-18T09:34:29.951Z,7648.00
2023-06-18T09:35:30.436Z,8120.00
2023-06-18T09:36:29.952Z,8364.00
2023-06-18T09:37:29.950Z,8612.00
2023-06-18T09:38:29.953Z,8656.00
2023-06-18T09:39:29.955Z,8564.00
2023-06-18T09:40:30.012Z,8584.00
2023-06-18T09:41:29.955Z,8848.00
2023-06-18T09:42:29.961Z,8944.00
2023-06-18T09:43:29.960Z,8308.00
2023-06-18T09:44:29.957Z,7868.00
2023-06-18T09:45:29.960Z,7692.00
2023-06-18T09:46:30.013Z,8140.00
2023-06-18T09:47:30.000Z,8656.00
2023-06-18T09:48:30.002Z,8716.00
2023-06-18T09:49:29.977Z,9004.00
2023-06-18T09:50:29.971Z,9344.00
2023-06-18T09:51:29.969Z,9672.00
2023-06-18T09:52:29.978Z,9576.00
2023-06-18T09:53:29.970Z,9300.00
2023-06-18T09:54:29.975Z,8776.00
2023-06-18T09:55:29.972Z,8660.00
2023-06-18T09:56:29.977Z,8580.00
2023-06-18T09:57:29.985Z,8612.00
2023-06-18T09:58:29.981Z,9120.00
2023-06-18T09:59:29.996Z,9072.00
2023-06-18T10:00:29.992Z,8428.00
2023-06-18T10:01:30.038Z,8024.00
2023-06-18T10:02:30.016Z,7572.00
2023-06-18T10:03:30.021Z,7772.00
2023-06-18T10:04:29.988Z,7496.00
2023-06-18T10:05:30.005Z,7260.00
2023-06-18T10:06:29.991Z,7064.00
2023-06-18T10:07:29.990Z,6920.00
2023-06-18T10:08:29.993Z,6588.00
2023-06-18T10:09:29.998Z,6584.00
2023-06-18T10:10:29.998Z,6444.00
2023-06-18T10:11:30.004Z,6312.00
2023-06-18T10:12:30.007Z,6296.00
2023-06-18T10:13:30.210Z,6248.00
2023-06-18T10:14:30.024Z,6108.00
2023-06-18T10:15:30.084Z,5972.00
2023-06-18T10:16:30.065Z,5744.00
2023-06-18T10:17:30.052Z,5560.00
2023-06-18T10:18:30.003Z,5564.00
2023-06-18T10:19:30.333Z,5560.00
2023-06-18T10:20:30.007Z,5376.00
2023-06-18T10:21:30.008Z,5592.00
2023-06-18T10:22:30.032Z,5500.00
2023-06-18T10:23:30.031Z,5616.00
2023-06-18T10:24:30.040Z,5572.00
2023-06-18T10:25:30.032Z,5456.00
2023-06-18T10:26:30.013Z,5428.00
2023-06-18T10:27:30.016Z,5412.00
2023-06-18T10:28:30.016Z,5360.00
2023-06-18T10:29:30.019Z,5388.00
2023-06-18T10:30:30.087Z,5368.00
2023-06-18T10:31:30.019Z,5304.00
2023-06-18T10:32:30.082Z,5280.00
2023-06-18T10:33:30.024Z,5528.00
2023-06-18T10:34:30.029Z,6092.00
2023-06-18T10:35:30.026Z,5952.00
2023-06-18T10:36:30.029Z,5636.00
2023-06-18T10:37:30.031Z,5436.00
2023-06-18T10:38:30.044Z,5236.00
2023-06-18T10:39:30.027Z,5112.00
2023-06-18T10:40:30.037Z,5092.00
2023-06-18T10:41:30.026Z,5088.00
2023-06-18T10:42:30.029Z,5060.00
2023-06-18T10:43:30.035Z,5052.00
2023-06-18T10:44:30.043Z,5072.00
2023-06-18T10:45:30.062Z,5044.00
2023-06-18T10:46:30.031Z,5028.00
2023-06-18T10:47:30.121Z,5016.00
2023-06-18T10:48:30.036Z,5016.00
2023-06-18T10:49:30.034Z,5048.00
2023-06-18T10:50:30.304Z,5080.00
2023-06-18T10:51:30.048Z,5088.00
2023-06-18T10:52:30.633Z,5120.00
2023-06-18T10:53:30.042Z,5156.00
2023-06-18T10:54:30.041Z,5196.00
2023-06-18T10:55:31.344Z,5252.00
2023-06-18T10:56:30.042Z,5368.00
2023-06-18T10:57:30.048Z,5436.00
2023-06-18T10:58:30.088Z,5460.00
2023-06-18T10:59:30.039Z,5468.00
2023-06-18T11:00:30.117Z,5584.00
2023-06-18T11:01:30.048Z,5672.00
2023-06-18T11:02:30.115Z,5824.00
2023-06-18T11:03:30.146Z,6048.00
2023-06-18T11:04:30.048Z,6260.00
2023-06-18T11:05:30.052Z,5928.00
2023-06-18T11:06:30.080Z,5652.00
2023-06-18T11:07:30.045Z,5464.00
2023-06-18T11:08:30.052Z,5620.00
2023-06-18T11:09:30.063Z,5620.00
2023-06-18T11:10:30.122Z,5952.00
2023-06-18T11:11:30.135Z,6268.00
2023-06-18T11:12:30.193Z,6052.00
2023-06-18T11:13:30.054Z,6436.00
2023-06-18T11:14:30.305Z,6312.00
2023-06-18T11:15:30.061Z,6856.00
2023-06-18T11:16:30.053Z,6900.00
2023-06-18T11:17:30.076Z,6752.00
2023-06-18T11:18:30.066Z,6496.00
2023-06-18T11:19:30.120Z,6416.00
2023-06-18T11:20:30.059Z,6692.00
2023-06-18T11:21:30.057Z,6300.00
2023-06-18T11:22:30.054Z,6244.00
2023-06-18T11:23:30.191Z,6072.00
2023-06-18T11:24:32.701Z,5796.00
2023-06-18T11:25:30.058Z,5364.00
2023-06-18T11:26:30.063Z,5116.00
2023-06-18T11:27:30.065Z,4928.00
2023-06-18T11:28:30.065Z,5188.00
2023-06-18T11:29:30.063Z,5476.00
2023-06-18T11:30:30.092Z,5708.00
2023-06-18T11:31:30.069Z,6212.00
2023-06-18T11:32:30.203Z,6236.00
2023-06-18T11:33:30.098Z,6300.00
2023-06-18T11:34:30.070Z,6508.00
2023-06-18T11:35:30.067Z,6884.00
2023-06-18T11:36:30.069Z,7176.00
2023-06-18T11:37:30.070Z,7284.00
2023-06-18T11:38:30.094Z,7220.00
2023-06-18T11:39:30.071Z,7200.00
2023-06-18T11:40:30.082Z,7284.00
2023-06-18T11:41:30.082Z,7124.00
2023-06-18T11:42:30.076Z,6784.00
2023-06-18T11:43:30.076Z,6588.00
2023-06-18T11:44:30.080Z,6596.00
2023-06-18T11:45:30.085Z,6964.00
2023-06-18T11:46:30.142Z,7056.00
2023-06-18T11:47:30.117Z,7048.00
2023-06-18T11:48:31.334Z,7028.00
2023-06-18T11:49:30.084Z,6916.00
2023-06-18T11:50:30.082Z,7232.00
2023-06-18T11:51:30.086Z,7468.00
2023-06-18T11:52:30.084Z,7384.00
2023-06-18T11:53:30.086Z,6848.00
2023-06-18T11:54:30.086Z,6352.00
2023-06-18T11:55:30.088Z,5868.00
2023-06-18T11:56:30.123Z,5488.00
2023-06-18T11:57:30.094Z,5364.00
2023-06-18T11:58:30.097Z,5104.00
2023-06-18T11:59:30.115Z,4864.00
2023-06-18T12:00:30.102Z,4852.00
2023-06-18T12:01:30.578Z,4896.00
2023-06-18T12:02:30.512Z,5004.00
2023-06-18T12:03:30.131Z,5104.00
2023-06-18T12:04:30.127Z,5124.00
2023-06-18T12:05:30.108Z,5140.00
2023-06-18T12:06:30.104Z,5272.00
2023-06-18T12:07:30.110Z,5480.00
2023-06-18T12:08:30.110Z,5872.00
2023-06-18T12:09:30.109Z,6096.00
2023-06-18T12:10:30.122Z,6144.00
2023-06-18T12:11:30.109Z,6104.00
2023-06-18T12:12:30.142Z,6044.00
2023-06-18T12:13:30.116Z,5892.00
2023-06-18T12:14:30.116Z,5700.00
2023-06-18T12:15:30.123Z,5608.00
2023-06-18T12:16:30.130Z,5516.00